YM Kaohsiung — MCGF6 — position and weather

sailwx.info

Track history (hours):
 
Tides and Currents Weather Stations Pressure Air Temp Water Temp Dewpoint Dewpoint Depression Visibility Wind Speed Wind Dir Waves Ship Positions

YM Kaohsiung

Last reported at 2014-Nov-24 01:09 UTC. Time now 2014-Nov-24 16:29 UTC.
Position N 35°58' E 120°37'.

Length 260 m; draft 11 m.

Type: Cargo ship. MMSI: 235767000.

Date/timePositionNaut miles runAvg speedWind from/ knotsBaromVisibWave heightAir tempDewpointWater temp
2014-Nov-24 01:09N 35°58' E 120°37'813.7
2014-Nov-24 00:33N 35°60' E 120°27'10 9.6
2014-Nov-23 23:33N 36°02' E 120°15'2 2.1
2014-Nov-23 22:28N 36°01' E 120°13'0 0.0
2014-Nov-23 21:22N 36°01' E 120°13'0 0.0
2014-Nov-23 20:22N 36°01' E 120°13'0 0.1
2014-Nov-23 19:28N 36°01' E 120°13'0 0.0
2014-Nov-23 18:28N 36°01' E 120°13'0 0.0
2014-Nov-23 17:28N 36°01' E 120°13'0 0.0
2014-Nov-23 16:28N 36°01' E 120°13'0 0.0
2014-Nov-23 15:28N 36°01' E 120°13'0 0.0
2014-Nov-23 14:28N 36°01' E 120°13'0 0.0
2014-Nov-23 13:28N 36°01' E 120°13'3 1.5
2014-Nov-23 11:31N 36°02' E 120°16'8 7.9
2014-Nov-23 10:33N 36°01' E 120°25'1211.8
2014-Nov-23 09:33N 35°58' E 120°39'107 3.0
2014-Nov-21 21:31N 36°39' E 122°42'1313.0
2014-Nov-21 20:33N 36°49' E 122°52'1313.3
2014-Nov-21 19:33N 37°02' E 122°54'1614.3
2014-Nov-21 18:27N 37°18' E 122°55'6414.7
2014-Nov-21 14:06N 38°15' E 122°19'814.6
2014-Nov-21 13:33N 38°23' E 122°17'1514.5
2014-Nov-21 12:32N 38°33' E 122°04'1515.1
2014-Nov-21 11:33N 38°47' E 121°57'8 0.5
2014-Nov-20 20:32N 38°55' E 121°57'1212.6
2014-Nov-20 19:33N 38°43' E 121°50'1211.7
2014-Nov-20 18:34N 38°33' E 121°44'1110.7
2014-Nov-20 17:34N 38°29' E 121°31'16713.7
2014-Nov-20 05:22N 38°56' E 117°60'1012.4
2014-Nov-20 04:32N 38°59' E 117°47'0 0.3
2014-Nov-20 03:24N 38°60' E 117°47'0 0.0
2014-Nov-20 02:29N 38°60' E 117°47'0 0.0
2014-Nov-20 01:29N 38°60' E 117°47'0 0.0
2014-Nov-20 00:29N 38°60' E 117°47'0 0.0
2014-Nov-19 23:29N 38°60' E 117°47'0 0.0
2014-Nov-19 22:29N 38°60' E 117°47'0 0.0
2014-Nov-19 21:29N 38°60' E 117°47'0 0.0
2014-Nov-19 20:29N 38°60' E 117°47'0 0.0
2014-Nov-19 19:28N 38°60' E 117°47'5 5.2
2014-Nov-19 18:34N 38°57' E 117°53'1010.1
2014-Nov-19 17:34N 38°56' E 118°05'19215.9
2014-Nov-19 05:26N 38°02' E 122°01'1920.1
2014-Nov-19 04:28N 37°53' E 122°23'2219.5
2014-Nov-19 03:20N 37°40' E 122°46'3817.7
2014-Nov-19 01:12N 37°12' E 123°17'44219.4
2014-Nov-18 02:24N 29°51' E 122°37'1618.4
2014-Nov-18 01:33N 29°44' E 122°21'1010.5
2014-Nov-18 00:33N 29°51' E 122°11'1010.3
2014-Nov-17 23:33N 29°46' E 122°01'0 0.2
2014-Nov-17 22:33N 29°46' E 122°00'0 0.0
2014-Nov-17 21:27N 29°46' E 122°00'0 0.1
2014-Nov-17 20:33N 29°46' E 122°00'0 0.1
2014-Nov-17 19:32N 29°46' E 122°00'0 0.0
2014-Nov-17 18:25N 29°46' E 122°00'0 0.1
2014-Nov-17 17:33N 29°46' E 122°00'0 0.0
2014-Nov-17 16:29N 29°46' E 122°00'0 0.1
2014-Nov-17 15:33N 29°46' E 122°00'0 0.1
2014-Nov-17 14:32N 29°46' E 122°00'0 0.0
2014-Nov-17 13:25N 29°46' E 122°00'0 0.0
2014-Nov-17 12:19N 29°46' E 122°00'0 0.1
2014-Nov-17 11:28N 29°46' E 122°00'1 1.1
2014-Nov-17 10:33N 29°47' E 122°02'1010.3
2014-Nov-17 09:33N 29°50' E 122°12'1010.3
2014-Nov-17 08:33N 29°43' E 122°21'4 2.7
2014-Nov-17 07:14N 29°39' E 122°20'0 0.0
2014-Nov-17 04:14N 29°39' E 122°20'0 0.0
2014-Nov-17 03:25N 29°39' E 122°20'0 0.0
2014-Nov-17 02:31N 29°39' E 122°20'0 0.1
2014-Nov-17 01:31N 29°39' E 122°20'0 0.0
2014-Nov-17 00:13N 29°39' E 122°20'0 0.1
2014-Nov-16 23:31N 29°39' E 122°20'0 0.0
2014-Nov-16 22:18N 29°39' E 122°20'0 0.0
2014-Nov-16 21:30N 29°39' E 122°20'0 0.0
2014-Nov-16 20:24N 29°39' E 122°20'0 0.0
2014-Nov-16 18:11N 29°39' E 122°20'0 0.0
2014-Nov-16 17:17N 29°39' E 122°20'0 0.0
2014-Nov-16 16:29N 29°39' E 122°20'0 0.0
2014-Nov-16 15:28N 29°39' E 122°20'0 0.0
2014-Nov-16 14:22N 29°39' E 122°20'0 0.1
2014-Nov-16 13:27N 29°39' E 122°20'  
Track history (hours):
 
Tides and Currents Weather Stations Pressure Air Temp Water Temp Dewpoint Dewpoint Depression Visibility Wind Speed Wind Dir Waves Ship Positions

YM Kaohsiung

Last reported at 2014-Nov-24 01:09 UTC. Time now 2014-Nov-24 16:29 UTC.
Position N 35°58' E 120°37'.

Length 260 m; draft 11 m.

Type: Cargo ship. MMSI: 235767000.

Date/timePositionNaut miles runAvg speedWind from/ knotsBaromVisibWave heightAir tempDewpointWater temp
2014-Nov-24 01:09N 35°58' E 120°37'813.7
2014-Nov-24 00:33N 35°60' E 120°27'10 9.6
2014-Nov-23 23:33N 36°02' E 120°15'2 2.1
2014-Nov-23 22:28N 36°01' E 120°13'0 0.0
2014-Nov-23 21:22N 36°01' E 120°13'0 0.0
2014-Nov-23 20:22N 36°01' E 120°13'0 0.1
2014-Nov-23 19:28N 36°01' E 120°13'0 0.0
2014-Nov-23 18:28N 36°01' E 120°13'0 0.0
2014-Nov-23 17:28N 36°01' E 120°13'0 0.0
2014-Nov-23 16:28N 36°01' E 120°13'0 0.0
2014-Nov-23 15:28N 36°01' E 120°13'0 0.0
2014-Nov-23 14:28N 36°01' E 120°13'0 0.0
2014-Nov-23 13:28N 36°01' E 120°13'3 1.5
2014-Nov-23 11:31N 36°02' E 120°16'8 7.9
2014-Nov-23 10:33N 36°01' E 120°25'1211.8
2014-Nov-23 09:33N 35°58' E 120°39'107 3.0
2014-Nov-21 21:31N 36°39' E 122°42'1313.0
2014-Nov-21 20:33N 36°49' E 122°52'1313.3
2014-Nov-21 19:33N 37°02' E 122°54'1614.3
2014-Nov-21 18:27N 37°18' E 122°55'6414.7
2014-Nov-21 14:06N 38°15' E 122°19'814.6
2014-Nov-21 13:33N 38°23' E 122°17'1514.5
2014-Nov-21 12:32N 38°33' E 122°04'1515.1
2014-Nov-21 11:33N 38°47' E 121°57'8 0.5
2014-Nov-20 20:32N 38°55' E 121°57'1212.6
2014-Nov-20 19:33N 38°43' E 121°50'1211.7
2014-Nov-20 18:34N 38°33' E 121°44'1110.7
2014-Nov-20 17:34N 38°29' E 121°31'16713.7
2014-Nov-20 05:22N 38°56' E 117°60'1012.4
2014-Nov-20 04:32N 38°59' E 117°47'0 0.3
2014-Nov-20 03:24N 38°60' E 117°47'0 0.0
2014-Nov-20 02:29N 38°60' E 117°47'0 0.0
2014-Nov-20 01:29N 38°60' E 117°47'0 0.0
2014-Nov-20 00:29N 38°60' E 117°47'0 0.0
2014-Nov-19 23:29N 38°60' E 117°47'0 0.0
2014-Nov-19 22:29N 38°60' E 117°47'0 0.0
2014-Nov-19 21:29N 38°60' E 117°47'0 0.0
2014-Nov-19 20:29N 38°60' E 117°47'0 0.0
2014-Nov-19 19:28N 38°60' E 117°47'5 5.2
2014-Nov-19 18:34N 38°57' E 117°53'1010.1
2014-Nov-19 17:34N 38°56' E 118°05'19215.9
2014-Nov-19 05:26N 38°02' E 122°01'1920.1
2014-Nov-19 04:28N 37°53' E 122°23'2219.5
2014-Nov-19 03:20N 37°40' E 122°46'3817.7
2014-Nov-19 01:12N 37°12' E 123°17'44219.4
2014-Nov-18 02:24N 29°51' E 122°37'1618.4
2014-Nov-18 01:33N 29°44' E 122°21'1010.5
2014-Nov-18 00:33N 29°51' E 122°11'1010.3
2014-Nov-17 23:33N 29°46' E 122°01'0 0.2
2014-Nov-17 22:33N 29°46' E 122°00'0 0.0
2014-Nov-17 21:27N 29°46' E 122°00'0 0.1
2014-Nov-17 20:33N 29°46' E 122°00'0 0.1
2014-Nov-17 19:32N 29°46' E 122°00'0 0.0
2014-Nov-17 18:25N 29°46' E 122°00'0 0.1
2014-Nov-17 17:33N 29°46' E 122°00'0 0.0
2014-Nov-17 16:29N 29°46' E 122°00'0 0.1
2014-Nov-17 15:33N 29°46' E 122°00'0 0.1
2014-Nov-17 14:32N 29°46' E 122°00'0 0.0
2014-Nov-17 13:25N 29°46' E 122°00'0 0.0
2014-Nov-17 12:19N 29°46' E 122°00'0 0.1
2014-Nov-17 11:28N 29°46' E 122°00'1 1.1
2014-Nov-17 10:33N 29°47' E 122°02'1010.3
2014-Nov-17 09:33N 29°50' E 122°12'1010.3
2014-Nov-17 08:33N 29°43' E 122°21'4 2.7
2014-Nov-17 07:14N 29°39' E 122°20'0 0.0
2014-Nov-17 04:14N 29°39' E 122°20'0 0.0
2014-Nov-17 03:25N 29°39' E 122°20'0 0.0
2014-Nov-17 02:31N 29°39' E 122°20'0 0.1
2014-Nov-17 01:31N 29°39' E 122°20'0 0.0
2014-Nov-17 00:13N 29°39' E 122°20'0 0.1
2014-Nov-16 23:31N 29°39' E 122°20'0 0.0
2014-Nov-16 22:18N 29°39' E 122°20'0 0.0
2014-Nov-16 21:30N 29°39' E 122°20'0 0.0
2014-Nov-16 20:24N 29°39' E 122°20'0 0.0
2014-Nov-16 18:11N 29°39' E 122°20'0 0.0
2014-Nov-16 17:17N 29°39' E 122°20'0 0.0
2014-Nov-16 16:29N 29°39' E 122°20'0 0.0
2014-Nov-16 15:28N 29°39' E 122°20'0 0.0
2014-Nov-16 14:22N 29°39' E 122°20'0 0.1
2014-Nov-16 13:27N 29°39' E 122°20'  

Dump ship's entire track history